createdAt,value
2019-05-02T00:02:11.435Z,58.98
2019-05-02T00:04:38.299Z,58.81
2019-05-02T00:07:07.280Z,60.16
2019-05-02T00:09:35.647Z,60.14
2019-05-02T00:12:06.796Z,59.80
2019-05-02T00:14:34.981Z,59.24
2019-05-02T00:17:02.193Z,59.55
2019-05-02T00:19:29.515Z,60.00
2019-05-02T00:21:56.809Z,59.45
2019-05-02T00:24:23.793Z,59.45
2019-05-02T00:26:50.757Z,58.85
2019-05-02T00:29:19.026Z,59.01
2019-05-02T00:31:48.810Z,58.93
2019-05-02T00:34:15.789Z,59.00
2019-05-02T00:36:43.064Z,58.96
2019-05-02T00:39:13.724Z,59.30
2019-05-02T00:41:40.442Z,59.36
2019-05-02T00:44:10.957Z,60.02
2019-05-02T00:46:37.176Z,60.16
2019-05-02T00:49:04.448Z,60.56
2019-05-02T00:51:31.598Z,60.20
2019-05-02T00:53:58.762Z,60.17
2019-05-02T00:56:25.541Z,60.25
2019-05-02T00:58:52.689Z,60.49
2019-05-02T01:01:29.628Z,60.74
2019-05-02T01:03:59.270Z,61.25
2019-05-02T01:06:26.486Z,60.99
2019-05-02T01:08:53.284Z,61.45
2019-05-02T01:11:20.250Z,61.42
2019-05-02T01:13:50.276Z,61.90
2019-05-02T01:16:19.120Z,61.79
2019-05-02T01:18:44.669Z,61.38
2019-05-02T01:21:11.467Z,62.00
2019-05-02T01:23:38.352Z,62.33
2019-05-02T01:26:07.116Z,62.85
2019-05-02T01:28:55.612Z,63.17
2019-05-02T01:31:36.591Z,62.96
2019-05-02T01:34:17.958Z,62.55
2019-05-02T01:36:49.673Z,62.77
2019-05-02T01:39:17.033Z,63.41
2019-05-02T01:41:43.905Z,63.55
2019-05-02T01:44:10.780Z,63.66
2019-05-02T01:46:37.628Z,64.61
2019-05-02T01:49:04.781Z,64.75
2019-05-02T01:51:31.513Z,63.57
2019-05-02T01:53:59.148Z,62.85
2019-05-02T01:56:28.443Z,62.71
2019-05-02T01:58:57.763Z,62.42
2019-05-02T02:01:23.863Z,62.09
2019-05-02T02:03:50.744Z,61.80
2019-05-02T02:06:17.622Z,62.75
2019-05-02T02:08:45.030Z,63.50
2019-05-02T02:11:11.765Z,63.40
2019-05-02T02:13:38.849Z,62.89
2019-05-02T02:16:06.168Z,62.51
2019-05-02T02:18:35.099Z,62.96
2019-05-02T02:21:14.972Z,63.79
2019-05-02T02:23:49.739Z,64.67
2019-05-02T02:26:18.756Z,64.15
2019-05-02T02:28:45.638Z,63.46
2019-05-02T02:31:12.628Z,64.03
2019-05-02T02:33:40.806Z,64.09
2019-05-02T02:36:09.040Z,64.61
2019-05-02T02:38:36.458Z,64.07
2019-05-02T02:41:06.392Z,63.24
2019-05-02T02:43:34.740Z,62.92
2019-05-02T02:46:01.705Z,62.64
2019-05-02T02:48:33.614Z,62.46
2019-05-02T02:50:58.976Z,62.56
2019-05-02T02:53:31.424Z,63.98
2019-05-02T02:56:05.987Z,65.00
2019-05-02T02:58:44.558Z,65.49
2019-05-02T03:01:02.133Z,64.51
2019-05-02T03:03:31.381Z,65.17
2019-05-02T03:06:05.242Z,66.11
2019-05-02T03:08:27.337Z,66.00
2019-05-02T03:10:54.408Z,66.02
2019-05-02T03:13:24.363Z,65.82
2019-05-02T03:16:00.463Z,66.77
2019-05-02T03:18:26.938Z,66.60
2019-05-02T03:20:52.658Z,65.94
2019-05-02T03:23:22.163Z,66.41
2019-05-02T03:25:51.171Z,67.17
2019-05-02T03:28:20.355Z,67.16
2019-05-02T03:30:46.404Z,67.23
2019-05-02T03:33:13.158Z,66.46
2019-05-02T03:35:44.130Z,66.57
2019-05-02T03:38:09.450Z,66.51
2019-05-02T03:40:38.871Z,66.53
2019-05-02T03:43:06.440Z,66.77
2019-05-02T03:45:39.804Z,66.17
2019-05-02T03:48:02.197Z,67.04
2019-05-02T03:50:32.746Z,68.11
2019-05-02T03:52:59.233Z,68.13
2019-05-02T03:55:30.896Z,69.12
2019-05-02T03:57:55.934Z,68.66
2019-05-02T04:00:24.416Z,68.64
2019-05-02T04:02:59.588Z,68.48
2019-05-02T04:05:20.385Z,69.20
2019-05-02T04:07:47.560Z,68.86
2019-05-02T04:10:46.273Z,69.30
2019-05-02T04:13:13.817Z,69.22
2019-05-02T04:15:42.820Z,68.57
2019-05-02T04:18:15.569Z,68.80
2019-05-02T04:20:43.537Z,68.55
2019-05-02T04:23:11.530Z,67.56
2019-05-02T04:25:39.034Z,67.48
2019-05-02T04:28:11.488Z,67.37
2019-05-02T04:30:34.469Z,68.93
2019-05-02T04:33:01.355Z,69.75
2019-05-02T04:35:28.716Z,69.62
2019-05-02T04:37:59.113Z,68.72
2019-05-02T04:40:28.189Z,67.82
2019-05-02T04:43:05.498Z,68.02
2019-05-02T04:45:29.384Z,67.98
2019-05-02T04:47:58.999Z,67.35
2019-05-02T04:50:25.315Z,67.19
2019-05-02T04:52:53.728Z,67.09
2019-05-02T04:55:26.214Z,66.47
2019-05-02T04:57:50.594Z,66.94
2019-05-02T05:00:20.957Z,66.80
2019-05-02T05:02:48.391Z,66.37
2019-05-02T05:05:25.019Z,67.27
2019-05-02T05:07:46.515Z,66.85
2019-05-02T05:10:14.476Z,66.37
2019-05-02T05:12:42.010Z,66.60
2019-05-02T05:15:15.144Z,66.70
2019-05-02T05:17:38.070Z,66.36
2019-05-02T05:20:12.210Z,66.45
2019-05-02T05:22:36.598Z,66.70
2019-05-02T05:25:21.360Z,66.41
2019-05-02T05:27:52.556Z,66.19
2019-05-02T05:30:18.754Z,65.82
2019-05-02T05:32:47.785Z,65.53
2019-05-02T05:35:15.154Z,66.17
2019-05-02T05:37:43.268Z,66.08
2019-05-02T05:40:11.238Z,66.64
2019-05-02T05:42:38.122Z,67.28
2019-05-02T05:45:09.693Z,67.07
2019-05-02T05:47:37.722Z,66.82
2019-05-02T05:50:05.676Z,67.31
2019-05-02T05:52:33.110Z,66.76
2019-05-02T05:55:01.107Z,66.11
2019-05-02T05:57:28.048Z,65.68
2019-05-02T05:59:58.425Z,65.69
2019-05-02T06:02:25.448Z,65.75
2019-05-02T06:04:55.343Z,65.57
2019-05-02T06:07:21.426Z,65.11
2019-05-02T06:09:48.155Z,65.12
2019-05-02T06:12:15.040Z,64.66
2019-05-02T06:14:41.890Z,64.68
2019-05-02T06:17:09.428Z,64.51
2019-05-02T06:19:37.151Z,63.81
2019-05-02T06:22:04.668Z,63.62
2019-05-02T06:24:33.834Z,63.41
2019-05-02T06:27:00.431Z,63.09
2019-05-02T06:29:27.321Z,62.62
2019-05-02T06:31:59.457Z,62.25
2019-05-02T06:34:26.229Z,62.13
2019-05-02T06:36:53.097Z,62.25
2019-05-02T06:39:19.879Z,61.91
2019-05-02T06:41:46.750Z,61.46
2019-05-02T06:44:18.475Z,61.20
2019-05-02T06:46:42.808Z,60.96
2019-05-02T06:49:09.694Z,60.78
2019-05-02T06:51:38.231Z,60.37
2019-05-02T06:54:05.545Z,60.00
2019-05-02T06:56:32.661Z,59.72
2019-05-02T06:59:01.755Z,59.29
2019-05-02T07:01:28.614Z,58.89
2019-05-02T07:03:55.595Z,58.40
2019-05-02T07:06:22.912Z,57.90
2019-05-02T07:08:50.184Z,57.43
2019-05-02T07:11:18.123Z,57.02
2019-05-02T07:13:44.909Z,56.73
2019-05-02T07:16:30.361Z,56.53
2019-05-02T07:18:49.403Z,56.13
2019-05-02T07:21:17.317Z,55.76
2019-05-02T07:23:48.627Z,55.39
2019-05-02T07:26:15.414Z,55.12
2019-05-02T07:28:45.758Z,54.84
2019-05-02T07:31:13.857Z,54.61
2019-05-02T07:33:40.870Z,54.31
2019-05-02T07:36:07.823Z,53.80
2019-05-02T07:38:34.726Z,53.52
2019-05-02T07:41:01.587Z,53.36
2019-05-02T07:43:28.560Z,53.33
2019-05-02T07:45:55.803Z,52.86
2019-05-02T07:48:22.569Z,52.30
2019-05-02T07:50:49.893Z,52.18
2019-05-02T07:53:17.227Z,52.01
2019-05-02T07:55:44.217Z,51.94
2019-05-02T07:58:11.027Z,51.77
2019-05-02T08:00:38.502Z,51.44
2019-05-02T08:03:05.589Z,50.81
2019-05-02T08:05:32.785Z,49.88
2019-05-02T08:07:59.919Z,49.21
2019-05-02T08:10:27.180Z,48.52
2019-05-02T08:12:54.560Z,47.76
2019-05-02T08:15:24.301Z,47.77
2019-05-02T08:17:53.807Z,47.83
2019-05-02T08:20:19.810Z,48.10
2019-05-02T08:22:48.924Z,47.70
2019-05-02T08:25:16.922Z,47.10
2019-05-02T08:27:51.771Z,46.76
2019-05-02T08:30:21.232Z,46.75
2019-05-02T08:32:48.401Z,47.10
2019-05-02T08:35:15.270Z,47.16
2019-05-02T08:37:43.106Z,46.70
2019-05-02T08:40:12.016Z,46.16
2019-05-02T08:42:39.068Z,45.70
2019-05-02T08:45:06.972Z,45.34
2019-05-02T08:47:33.899Z,45.06
2019-05-02T08:50:00.983Z,44.77
2019-05-02T08:52:27.883Z,44.63
2019-05-02T08:54:54.773Z,44.62
2019-05-02T08:57:23.855Z,44.39
2019-05-02T08:59:55.501Z,43.68
2019-05-02T09:02:21.202Z,42.98
2019-05-02T09:04:58.175Z,42.55
2019-05-02T09:07:18.288Z,41.88
2019-05-02T09:09:45.217Z,42.06
2019-05-02T09:12:15.080Z,41.79
2019-05-02T09:14:42.602Z,41.63
2019-05-02T09:17:15.847Z,41.60
2019-05-02T09:19:38.955Z,41.33
2019-05-02T09:22:07.516Z,41.48
2019-05-02T09:24:34.533Z,41.26
2019-05-02T09:27:02.479Z,41.22
2019-05-02T09:29:29.541Z,40.71
2019-05-02T09:31:56.445Z,40.60
2019-05-02T09:34:26.694Z,40.45
2019-05-02T09:36:53.040Z,40.16
2019-05-02T09:39:20.023Z,39.94
2019-05-02T09:41:46.840Z,40.49
2019-05-02T09:44:18.623Z,40.33
2019-05-02T09:46:47.348Z,40.02
2019-05-02T09:49:16.273Z,39.72
2019-05-02T09:51:45.596Z,39.63
2019-05-02T09:54:12.087Z,39.33
2019-05-02T09:56:39.043Z,39.00
2019-05-02T09:59:23.262Z,39.25
2019-05-02T10:01:36.926Z,38.87
2019-05-02T10:04:04.285Z,38.51
2019-05-02T10:06:33.703Z,38.28
2019-05-02T10:09:02.607Z,37.90
2019-05-02T10:11:29.708Z,37.72
2019-05-02T10:13:56.628Z,37.63
2019-05-02T10:16:27.343Z,37.63
2019-05-02T10:18:53.373Z,37.52
2019-05-02T10:21:22.656Z,37.39
2019-05-02T10:23:51.693Z,37.73
2019-05-02T10:26:20.269Z,38.08
2019-05-02T10:28:51.197Z,37.79
2019-05-02T10:31:19.366Z,37.22
2019-05-02T10:33:46.607Z,36.97
2019-05-02T10:36:19.688Z,36.92
2019-05-02T10:38:42.791Z,36.75
2019-05-02T10:41:11.877Z,36.28
2019-05-02T10:43:38.802Z,35.88
2019-05-02T10:46:07.478Z,35.62
2019-05-02T10:48:36.308Z,35.02
2019-05-02T10:51:25.608Z,35.12
2019-05-02T10:53:52.647Z,36.21
2019-05-02T10:56:19.787Z,36.92
2019-05-02T10:58:46.619Z,36.34
2019-05-02T11:01:16.110Z,35.67
2019-05-02T11:03:54.074Z,34.97
2019-05-02T11:06:22.251Z,33.93
2019-05-02T11:08:52.379Z,33.27
2019-05-02T11:11:21.740Z,33.17
2019-05-02T11:14:01.991Z,33.49
2019-05-02T11:16:34.149Z,33.66
2019-05-02T11:19:09.968Z,33.11
2019-05-02T11:21:37.154Z,32.78
2019-05-02T11:24:04.202Z,32.26
2019-05-02T11:26:32.418Z,31.41
2019-05-02T11:28:59.870Z,30.97
2019-05-02T11:31:26.822Z,31.55
2019-05-02T11:33:54.034Z,31.74
2019-05-02T11:36:22.323Z,32.92
2019-05-02T11:39:00.283Z,32.58
2019-05-02T11:41:19.780Z,31.82
2019-05-02T11:43:46.568Z,31.97
2019-05-02T11:46:13.714Z,32.36
2019-05-02T11:48:54.697Z,32.44
2019-05-02T11:51:14.842Z,32.79
2019-05-02T11:53:38.311Z,32.29
2019-05-02T11:56:07.451Z,32.19
2019-05-02T11:58:34.382Z,31.67
2019-05-02T12:01:05.055Z,31.15
2019-05-02T12:03:35.577Z,30.62
2019-05-02T12:05:59.234Z,30.12
2019-05-02T12:08:26.147Z,29.53
2019-05-02T12:10:53.027Z,29.32
2019-05-02T12:13:20.312Z,30.10
2019-05-02T12:15:47.387Z,30.95
2019-05-02T12:18:14.435Z,31.74
2019-05-02T12:20:42.510Z,32.56
2019-05-02T12:23:09.842Z,32.68
2019-05-02T12:25:36.747Z,30.80
2019-05-02T12:28:05.309Z,30.63
2019-05-02T12:30:34.130Z,31.16
2019-05-02T12:33:02.530Z,30.74
2019-05-02T12:35:32.106Z,30.41
2019-05-02T12:37:59.466Z,31.27
2019-05-02T12:40:26.717Z,30.96
2019-05-02T12:42:53.477Z,29.91
2019-05-02T12:45:21.923Z,28.66
2019-05-02T12:47:49.507Z,28.14
2019-05-02T12:50:16.555Z,27.92
2019-05-02T12:52:43.452Z,28.15
2019-05-02T12:55:12.789Z,27.89
2019-05-02T12:57:39.865Z,27.88
2019-05-02T13:00:08.060Z,28.01
2019-05-02T13:02:42.882Z,28.59
2019-05-02T13:05:10.312Z,28.96
2019-05-02T13:07:37.234Z,28.24
2019-05-02T13:10:06.209Z,27.19
2019-05-02T13:12:35.202Z,27.63
2019-05-02T13:15:04.899Z,28.31
2019-05-02T13:17:35.721Z,29.92
2019-05-02T13:20:03.816Z,30.70
2019-05-02T13:22:37.878Z,31.27
2019-05-02T13:25:10.317Z,31.87
2019-05-02T13:27:44.409Z,32.66
2019-05-02T13:30:12.399Z,33.12
2019-05-02T13:32:42.639Z,33.06
2019-05-02T13:35:12.861Z,33.12
2019-05-02T13:37:42.310Z,33.08
2019-05-02T13:40:12.204Z,32.90
2019-05-02T13:42:39.068Z,33.16
2019-05-02T13:45:08.583Z,33.54
2019-05-02T13:47:35.432Z,34.16
2019-05-02T13:50:04.894Z,34.70
2019-05-02T13:52:33.196Z,34.49
2019-05-02T13:55:01.807Z,33.94
2019-05-02T13:57:28.779Z,33.52
2019-05-02T13:59:55.762Z,32.92
2019-05-02T14:02:42.636Z,32.25
2019-05-02T14:05:13.827Z,32.17
2019-05-02T14:07:43.005Z,32.63
2019-05-02T14:10:25.287Z,33.54
2019-05-02T14:12:53.962Z,34.02
2019-05-02T14:15:22.484Z,34.47
2019-05-02T14:17:49.667Z,33.92
2019-05-02T14:20:18.499Z,34.00
2019-05-02T14:22:45.834Z,34.38
2019-05-02T14:25:13.095Z,34.79
2019-05-02T14:27:42.029Z,35.02
2019-05-02T14:30:09.634Z,35.11
2019-05-02T14:32:36.721Z,35.32
2019-05-02T14:35:07.855Z,35.87
2019-05-02T14:37:34.919Z,36.10
2019-05-02T14:40:08.418Z,36.18
2019-05-02T14:42:35.273Z,36.28
2019-05-02T14:45:13.311Z,36.60
2019-05-02T14:47:33.864Z,36.92
2019-05-02T14:50:02.208Z,37.25
2019-05-02T14:52:29.945Z,38.04
2019-05-02T14:54:56.717Z,37.26
2019-05-02T14:57:27.013Z,37.49
2019-05-02T14:59:59.062Z,37.27
2019-05-02T15:02:39.324Z,37.15
2019-05-02T15:05:05.684Z,37.10
2019-05-02T15:07:33.022Z,37.37
2019-05-02T15:10:05.046Z,37.73
2019-05-02T15:12:28.855Z,38.13
2019-05-02T15:14:58.657Z,38.57
2019-05-02T15:17:28.111Z,39.30
2019-05-02T15:19:53.244Z,39.71
2019-05-02T15:22:20.024Z,40.53
2019-05-02T15:24:46.767Z,41.18
2019-05-02T15:27:17.728Z,42.12
2019-05-02T15:29:42.619Z,43.87
2019-05-02T15:32:25.451Z,46.07
2019-05-02T15:35:02.496Z,47.03
2019-05-02T15:37:29.498Z,47.29
2019-05-02T15:42:25.882Z,46.27
2019-05-02T15:44:56.950Z,48.86
2019-05-02T15:47:22.509Z,48.46
2019-05-02T15:49:50.309Z,49.09
2019-05-02T15:52:24.268Z,49.60
2019-05-02T15:54:55.515Z,50.90
2019-05-02T15:57:22.077Z,51.24
2019-05-02T15:59:48.381Z,50.63
2019-05-02T16:02:21.897Z,50.83
2019-05-02T16:04:46.605Z,51.92
2019-05-02T16:07:14.030Z,53.23
2019-05-02T16:09:41.662Z,53.67
2019-05-02T16:12:08.790Z,53.91
2019-05-02T16:14:36.246Z,54.79
2019-05-02T16:17:03.912Z,55.51
2019-05-02T16:19:33.073Z,56.35
2019-05-02T16:22:06.676Z,57.37
2019-05-02T16:24:32.138Z,57.39
2019-05-02T16:26:58.999Z,57.43
2019-05-02T16:29:28.424Z,59.38
2019-05-02T16:31:59.819Z,59.83
2019-05-02T16:34:27.466Z,61.52
2019-05-02T16:36:57.592Z,62.04
2019-05-02T16:39:24.353Z,62.47
2019-05-02T16:41:52.953Z,62.64
2019-05-02T16:44:19.919Z,62.29
2019-05-02T16:46:47.119Z,62.07
2019-05-02T16:49:18.485Z,61.86
2019-05-02T16:51:43.292Z,62.66
2019-05-02T16:54:10.186Z,63.29
2019-05-02T16:56:42.363Z,63.22
2019-05-02T16:59:05.972Z,63.76
2019-05-02T17:01:32.794Z,65.17
2019-05-02T17:04:05.183Z,66.37
2019-05-02T17:06:29.817Z,66.62
2019-05-02T17:09:07.623Z,66.60
2019-05-02T17:11:36.421Z,67.20
2019-05-02T17:14:07.000Z,66.71
2019-05-02T17:16:32.420Z,66.55
2019-05-02T17:18:59.204Z,66.02
2019-05-02T17:21:26.764Z,66.82
2019-05-02T17:23:55.190Z,67.51
2019-05-02T17:26:22.795Z,66.97
2019-05-02T17:28:51.633Z,66.15
2019-05-02T17:31:20.645Z,66.21
2019-05-02T17:33:50.930Z,66.30
2019-05-02T17:36:21.522Z,66.94
2019-05-02T17:38:46.284Z,66.34
2019-05-02T17:41:13.349Z,66.06
2019-05-02T17:43:42.138Z,66.08
2019-05-02T17:46:12.672Z,65.52
2019-05-02T17:48:39.273Z,65.47
2019-05-02T17:51:08.455Z,66.00
2019-05-02T17:53:41.626Z,65.81
2019-05-02T17:56:04.427Z,65.49
2019-05-02T17:58:31.881Z,65.30
2019-05-02T18:01:02.580Z,65.27
2019-05-02T18:03:31.102Z,65.36
2019-05-02T18:05:58.674Z,65.20
2019-05-02T18:08:27.134Z,64.89
2019-05-02T18:10:58.094Z,65.20
2019-05-02T18:13:23.807Z,65.41
2019-05-02T18:15:53.570Z,65.50
2019-05-02T18:18:22.141Z,65.87
2019-05-02T18:20:49.128Z,66.10
2019-05-02T18:23:18.643Z,65.79
2019-05-02T18:25:45.263Z,65.79
2019-05-02T18:28:14.041Z,65.57
2019-05-02T18:30:41.741Z,65.62
2019-05-02T18:33:09.035Z,64.91
2019-05-02T18:35:37.496Z,64.71
2019-05-02T18:38:05.373Z,64.80
2019-05-02T18:40:32.436Z,64.59
2019-05-02T18:43:02.147Z,64.47
2019-05-02T18:45:29.159Z,64.68
2019-05-02T18:48:02.347Z,64.42
2019-05-02T18:50:36.979Z,64.55
2019-05-02T18:53:06.450Z,64.44
2019-05-02T18:55:33.954Z,64.57
2019-05-02T18:58:05.140Z,64.17
2019-05-02T19:00:36.109Z,64.20
2019-05-02T19:02:59.728Z,64.15
2019-05-02T19:05:26.700Z,64.19
2019-05-02T19:07:56.317Z,64.13
2019-05-02T19:10:23.180Z,64.04
2019-05-02T19:12:50.269Z,64.17
2019-05-02T19:15:18.360Z,63.99
2019-05-02T19:17:45.258Z,63.76
2019-05-02T19:20:29.297Z,63.76
2019-05-02T19:22:57.023Z,63.61
2019-05-02T19:25:24.483Z,63.70
2019-05-02T19:27:52.135Z,63.72
2019-05-02T19:30:26.407Z,63.84
2019-05-02T19:32:52.068Z,63.63
2019-05-02T19:35:19.272Z,64.50
2019-05-02T19:37:47.887Z,63.43
2019-05-02T19:40:26.896Z,63.21
2019-05-02T19:42:49.410Z,63.63
2019-05-02T19:45:16.982Z,63.29
2019-05-02T19:47:44.150Z,63.17
2019-05-02T19:50:36.710Z,63.37
2019-05-02T19:53:04.165Z,63.54
2019-05-02T19:55:29.772Z,63.72
2019-05-02T19:58:01.364Z,63.47
2019-05-02T20:00:27.091Z,63.60
2019-05-02T20:02:54.282Z,63.40
2019-05-02T20:05:25.434Z,63.71
2019-05-02T20:07:52.017Z,63.63
2019-05-02T20:10:19.398Z,63.39
2019-05-02T20:12:48.741Z,63.39
2019-05-02T20:15:25.407Z,63.67
2019-05-02T20:17:46.520Z,63.97
2019-05-02T20:20:42.292Z,64.33
2019-05-02T20:23:17.848Z,64.44
2019-05-02T20:25:39.173Z,64.33
2019-05-02T20:28:06.375Z,64.84
2019-05-02T20:30:33.522Z,65.67
2019-05-02T20:33:02.113Z,65.83
2019-05-02T20:35:29.341Z,65.24
2019-05-02T20:37:56.341Z,65.31
2019-05-02T20:40:28.160Z,64.90
2019-05-02T20:42:55.180Z,64.67
2019-05-02T20:45:22.764Z,64.86
2019-05-02T20:47:49.768Z,64.89
2019-05-02T20:50:17.068Z,64.94
2019-05-02T20:52:43.954Z,65.23
2019-05-02T20:55:12.262Z,65.01
2019-05-02T20:57:39.494Z,64.94
2019-05-02T21:00:23.391Z,65.19
2019-05-02T21:02:49.597Z,65.73
2019-05-02T21:05:21.879Z,65.65
2019-05-02T21:07:52.377Z,65.68
2019-05-02T21:10:21.836Z,65.95
2019-05-02T21:12:48.837Z,66.29
2019-05-02T21:15:18.211Z,66.19
2019-05-02T21:17:45.389Z,66.43
2019-05-02T21:20:12.585Z,66.19
2019-05-02T21:22:39.615Z,66.34
2019-05-02T21:25:07.021Z,66.39
2019-05-02T21:27:33.964Z,66.32
2019-05-02T21:30:01.065Z,66.58
2019-05-02T21:32:27.853Z,66.71
2019-05-02T21:34:54.810Z,66.61
2019-05-02T21:37:22.675Z,66.58
2019-05-02T21:39:49.697Z,66.79
2019-05-02T21:42:16.580Z,66.83
2019-05-02T21:44:43.936Z,66.74
2019-05-02T21:47:10.698Z,67.01
2019-05-02T21:49:43.094Z,67.15
2019-05-02T21:52:22.711Z,67.14
2019-05-02T21:54:52.256Z,66.78
2019-05-02T21:57:20.291Z,66.81
2019-05-02T21:59:47.300Z,66.92
2019-05-02T22:02:15.703Z,67.00
2019-05-02T22:04:42.922Z,66.81
2019-05-02T22:07:12.052Z,66.81
2019-05-02T22:09:38.558Z,66.70
2019-05-02T22:12:06.082Z,66.68
2019-05-02T22:14:33.092Z,66.43
2019-05-02T22:17:02.151Z,66.09
2019-05-02T22:19:29.002Z,65.92
2019-05-02T22:21:55.811Z,65.85
2019-05-02T22:24:22.731Z,65.81
2019-05-02T22:26:49.834Z,65.65
2019-05-02T22:29:16.682Z,65.69
2019-05-02T22:31:44.038Z,65.49
2019-05-02T22:34:12.819Z,65.06
2019-05-02T22:36:40.894Z,64.91
2019-05-02T22:39:22.728Z,64.96
2019-05-02T22:41:49.658Z,65.32
2019-05-02T22:44:16.478Z,65.23
2019-05-02T22:46:44.485Z,65.44
2019-05-02T22:49:14.650Z,65.43
2019-05-02T22:51:42.874Z,65.38
2019-05-02T22:54:23.294Z,65.72
2019-05-02T22:56:38.830Z,65.74
2019-05-02T22:59:06.001Z,65.91
2019-05-02T23:01:33.045Z,65.96
2019-05-02T23:04:01.857Z,66.10
2019-05-02T23:06:29.282Z,66.32
2019-05-02T23:08:56.171Z,66.18
2019-05-02T23:11:24.523Z,66.21
2019-05-02T23:13:51.796Z,65.79
2019-05-02T23:16:18.749Z,65.56
2019-05-02T23:18:45.551Z,65.48
2019-05-02T23:21:12.900Z,65.70
2019-05-02T23:23:41.719Z,65.48
2019-05-02T23:26:12.993Z,65.54
2019-05-02T23:28:42.365Z,65.69
2019-05-02T23:31:11.446Z,65.87
2019-05-02T23:33:56.868Z,66.15
2019-05-02T23:36:26.083Z,66.15
2019-05-02T23:38:52.970Z,66.25
2019-05-02T23:41:22.005Z,66.18
2019-05-02T23:43:49.007Z,66.06
2019-05-02T23:46:16.340Z,66.37
2019-05-02T23:48:43.512Z,66.60
2019-05-02T23:51:12.137Z,66.63
2019-05-02T23:53:39.294Z,66.65
2019-05-02T23:56:06.583Z,66.41
2019-05-02T23:58:33.344Z,66.35
